sensor_id;sensor_type;location;lat;lon;timestamp;temperature;humidity
71096;DHT22;58753;49.440;11.126;2023-07-09T00:02:23;18.12;68.09
71096;DHT22;58753;49.440;11.126;2023-07-09T00:04:49;18.09;68.05
71096;DHT22;58753;49.440;11.126;2023-07-09T00:07:27;18.09;68.13
71096;DHT22;58753;49.440;11.126;2023-07-09T00:09:54;18.06;68.14
71096;DHT22;58753;49.440;11.126;2023-07-09T00:12:20;18.05;68.04
71096;DHT22;58753;49.440;11.126;2023-07-09T00:14:46;17.99;68.26
71096;DHT22;58753;49.440;11.126;2023-07-09T00:17:26;17.97;68.20
71096;DHT22;58753;49.440;11.126;2023-07-09T00:19:52;17.96;68.16
71096;DHT22;58753;49.440;11.126;2023-07-09T00:22:18;17.93;68.35
71096;DHT22;58753;49.440;11.126;2023-07-09T00:24:46;17.89;68.43
71096;DHT22;58753;49.440;11.126;2023-07-09T00:27:13;17.85;68.59
71096;DHT22;58753;49.440;11.126;2023-07-09T00:29:41;17.83;68.94
71096;DHT22;58753;49.440;11.126;2023-07-09T00:32:14;17.81;69.21
71096;DHT22;58753;49.440;11.126;2023-07-09T00:34:40;17.82;69.61
71096;DHT22;58753;49.440;11.126;2023-07-09T00:37:12;17.81;69.83
71096;DHT22;58753;49.440;11.126;2023-07-09T00:39:38;17.75;69.98
71096;DHT22;58753;49.440;11.126;2023-07-09T00:42:07;17.66;70.48
71096;DHT22;58753;49.440;11.126;2023-07-09T00:44:36;17.59;70.80
71096;DHT22;58753;49.440;11.126;2023-07-09T00:50:04;17.46;71.25
71096;DHT22;58753;49.440;11.126;2023-07-09T00:52:46;17.44;71.52
71096;DHT22;58753;49.440;11.126;2023-07-09T00:55:18;17.38;71.44
71096;DHT22;58753;49.440;11.126;2023-07-09T00:57:47;17.35;71.59
71096;DHT22;58753;49.440;11.126;2023-07-09T01:00:22;17.34;71.72
71096;DHT22;58753;49.440;11.126;2023-07-09T01:02:50;17.32;71.87
71096;DHT22;58753;49.440;11.126;2023-07-09T01:05:16;17.28;72.06
71096;DHT22;58753;49.440;11.126;2023-07-09T01:07:45;17.22;72.05
71096;DHT22;58753;49.440;11.126;2023-07-09T01:10:12;17.20;72.26
71096;DHT22;58753;49.440;11.126;2023-07-09T01:12:38;17.15;72.28
71096;DHT22;58753;49.440;11.126;2023-07-09T01:15:04;17.11;72.22
71096;DHT22;58753;49.440;11.126;2023-07-09T01:17:29;17.11;72.33
71096;DHT22;58753;49.440;11.126;2023-07-09T01:19:56;17.11;72.48
71096;DHT22;58753;49.440;11.126;2023-07-09T01:22:22;17.08;72.64
71096;DHT22;58753;49.440;11.126;2023-07-09T01:27:27;16.99;72.61
71096;DHT22;58753;49.440;11.126;2023-07-09T01:29:55;16.94;72.72
71096;DHT22;58753;49.440;11.126;2023-07-09T01:32:21;16.83;72.58
71096;DHT22;58753;49.440;11.126;2023-07-09T01:34:49;16.83;72.86
71096;DHT22;58753;49.440;11.126;2023-07-09T01:37:17;16.79;72.89
71096;DHT22;58753;49.440;11.126;2023-07-09T01:39:43;16.77;72.87
71096;DHT22;58753;49.440;11.126;2023-07-09T01:42:09;16.74;72.90
71096;DHT22;58753;49.440;11.126;2023-07-09T01:44:36;16.76;73.04
71096;DHT22;58753;49.440;11.126;2023-07-09T01:47:04;16.71;72.84
71096;DHT22;58753;49.440;11.126;2023-07-09T01:49:30;16.69;72.97
71096;DHT22;58753;49.440;11.126;2023-07-09T01:51:59;16.63;72.90
71096;DHT22;58753;49.440;11.126;2023-07-09T01:54:28;16.63;72.98
71096;DHT22;58753;49.440;11.126;2023-07-09T01:56:53;16.57;72.78
71096;DHT22;58753;49.440;11.126;2023-07-09T01:59:26;16.56;72.89
71096;DHT22;58753;49.440;11.126;2023-07-09T02:01:52;16.55;72.88
71096;DHT22;58753;49.440;11.126;2023-07-09T02:04:18;16.52;72.97
71096;DHT22;58753;49.440;11.126;2023-07-09T02:06:44;16.48;72.87
71096;DHT22;58753;49.440;11.126;2023-07-09T02:09:09;16.50;73.12
71096;DHT22;58753;49.440;11.126;2023-07-09T02:11:35;16.48;73.20
71096;DHT22;58753;49.440;11.126;2023-07-09T02:14:00;16.50;73.31
71096;DHT22;58753;49.440;11.126;2023-07-09T02:16:25;16.50;73.16
71096;DHT22;58753;49.440;11.126;2023-07-09T02:18:51;16.43;73.23
71096;DHT22;58753;49.440;11.126;2023-07-09T02:21:16;16.40;73.46
71096;DHT22;58753;49.440;11.126;2023-07-09T02:23:42;16.38;73.57
71096;DHT22;58753;49.440;11.126;2023-07-09T02:26:07;16.32;73.90
71096;DHT22;58753;49.440;11.126;2023-07-09T02:28:32;16.32;74.00
71096;DHT22;58753;49.440;11.126;2023-07-09T02:30:58;16.30;74.11
71096;DHT22;58753;49.440;11.126;2023-07-09T02:33:23;16.33;74.13
71096;DHT22;58753;49.440;11.126;2023-07-09T02:35:49;16.28;74.09
71096;DHT22;58753;49.440;11.126;2023-07-09T02:38:14;16.22;74.27
71096;DHT22;58753;49.440;11.126;2023-07-09T02:40:40;16.22;74.52
71096;DHT22;58753;49.440;11.126;2023-07-09T02:43:05;16.16;74.44
71096;DHT22;58753;49.440;11.126;2023-07-09T02:45:30;16.13;74.65
71096;DHT22;58753;49.440;11.126;2023-07-09T02:47:56;16.15;74.70
71096;DHT22;58753;49.440;11.126;2023-07-09T02:50:21;16.12;74.74
71096;DHT22;58753;49.440;11.126;2023-07-09T02:52:47;16.09;74.89
71096;DHT22;58753;49.440;11.126;2023-07-09T02:55:12;16.08;74.93
71096;DHT22;58753;49.440;11.126;2023-07-09T02:57:37;16.06;74.88
71096;DHT22;58753;49.440;11.126;2023-07-09T03:00:03;16.05;75.06
71096;DHT22;58753;49.440;11.126;2023-07-09T03:02:30;15.99;75.02
71096;DHT22;58753;49.440;11.126;2023-07-09T03:04:56;15.96;75.24
71096;DHT22;58753;49.440;11.126;2023-07-09T03:07:21;15.94;74.99
71096;DHT22;58753;49.440;11.126;2023-07-09T03:09:47;15.91;75.13
71096;DHT22;58753;49.440;11.126;2023-07-09T03:12:12;15.91;75.37
71096;DHT22;58753;49.440;11.126;2023-07-09T03:14:37;15.91;75.39
71096;DHT22;58753;49.440;11.126;2023-07-09T03:17:03;15.94;75.33
71096;DHT22;58753;49.440;11.126;2023-07-09T03:19:29;15.91;75.68
71096;DHT22;58753;49.440;11.126;2023-07-09T03:21:54;15.89;75.46
71096;DHT22;58753;49.440;11.126;2023-07-09T03:24:19;15.87;75.56
71096;DHT22;58753;49.440;11.126;2023-07-09T03:26:46;15.77;75.29
71096;DHT22;58753;49.440;11.126;2023-07-09T03:29:12;15.78;75.58
71096;DHT22;58753;49.440;11.126;2023-07-09T03:31:37;15.77;75.45
71096;DHT22;58753;49.440;11.126;2023-07-09T03:34:03;15.75;75.66
71096;DHT22;58753;49.440;11.126;2023-07-09T03:36:29;15.74;75.61
71096;DHT22;58753;49.440;11.126;2023-07-09T03:38:54;15.69;75.70
71096;DHT22;58753;49.440;11.126;2023-07-09T03:41:20;15.68;75.57
71096;DHT22;58753;49.440;11.126;2023-07-09T03:43:45;15.67;75.59
71096;DHT22;58753;49.440;11.126;2023-07-09T03:46:11;15.62;75.59
71096;DHT22;58753;49.440;11.126;2023-07-09T03:48:37;15.64;75.80
71096;DHT22;58753;49.440;11.126;2023-07-09T03:51:03;15.65;75.81
71096;DHT22;58753;49.440;11.126;2023-07-09T03:53:28;15.68;75.67
71096;DHT22;58753;49.440;11.126;2023-07-09T03:55:55;15.72;75.75
71096;DHT22;58753;49.440;11.126;2023-07-09T03:58:23;15.74;75.70
71096;DHT22;58753;49.440;11.126;2023-07-09T04:00:48;15.77;75.69
71096;DHT22;58753;49.440;11.126;2023-07-09T04:03:14;15.81;75.77
71096;DHT22;58753;49.440;11.126;2023-07-09T04:05:39;15.85;75.62
71096;DHT22;58753;49.440;11.126;2023-07-09T04:08:05;15.92;75.60
71096;DHT22;58753;49.440;11.126;2023-07-09T04:10:30;15.96;75.42
71096;DHT22;58753;49.440;11.126;2023-07-09T04:12:56;15.96;75.18
71096;DHT22;58753;49.440;11.126;2023-07-09T04:15:21;16.01;75.30
71096;DHT22;58753;49.440;11.126;2023-07-09T04:17:47;16.05;75.05
71096;DHT22;58753;49.440;11.126;2023-07-09T04:20:12;16.04;74.91
71096;DHT22;58753;49.440;11.126;2023-07-09T04:22:39;16.09;74.76
71096;DHT22;58753;49.440;11.126;2023-07-09T04:25:07;16.15;74.96
71096;DHT22;58753;49.440;11.126;2023-07-09T04:27:35;16.20;74.99
71096;DHT22;58753;49.440;11.126;2023-07-09T04:30:01;16.25;74.92
71096;DHT22;58753;49.440;11.126;2023-07-09T04:32:26;16.30;74.81
71096;DHT22;58753;49.440;11.126;2023-07-09T04:34:51;16.34;74.75
71096;DHT22;58753;49.440;11.126;2023-07-09T04:37:17;16.42;74.87
71096;DHT22;58753;49.440;11.126;2023-07-09T04:39:43;16.49;74.79
71096;DHT22;58753;49.440;11.126;2023-07-09T04:42:12;16.52;74.57
71096;DHT22;58753;49.440;11.126;2023-07-09T04:44:38;16.56;74.52
71096;DHT22;58753;49.440;11.126;2023-07-09T04:47:04;16.60;74.50
71096;DHT22;58753;49.440;11.126;2023-07-09T04:49:29;16.64;74.50
71096;DHT22;58753;49.440;11.126;2023-07-09T04:51:54;16.70;74.43
71096;DHT22;58753;49.440;11.126;2023-07-09T04:54:22;16.73;74.38
71096;DHT22;58753;49.440;11.126;2023-07-09T04:56:48;16.81;74.32
71096;DHT22;58753;49.440;11.126;2023-07-09T04:59:13;16.87;74.21
71096;DHT22;58753;49.440;11.126;2023-07-09T05:01:39;16.94;74.22
71096;DHT22;58753;49.440;11.126;2023-07-09T05:04:04;17.01;74.17
71096;DHT22;58753;49.440;11.126;2023-07-09T05:06:30;17.08;74.14
71096;DHT22;58753;49.440;11.126;2023-07-09T05:08:55;17.15;74.22
71096;DHT22;58753;49.440;11.126;2023-07-09T05:11:21;17.22;74.24
71096;DHT22;58753;49.440;11.126;2023-07-09T05:13:46;17.31;74.25
71096;DHT22;58753;49.440;11.126;2023-07-09T05:16:11;17.39;74.21
71096;DHT22;58753;49.440;11.126;2023-07-09T05:18:37;17.42;74.21
71096;DHT22;58753;49.440;11.126;2023-07-09T05:21:02;17.52;74.22
71096;DHT22;58753;49.440;11.126;2023-07-09T05:23:28;17.59;74.27
71096;DHT22;58753;49.440;11.126;2023-07-09T05:25:58;17.68;74.31
71096;DHT22;58753;49.440;11.126;2023-07-09T05:28:23;17.78;74.22
71096;DHT22;58753;49.440;11.126;2023-07-09T05:30:49;17.85;74.31
71096;DHT22;58753;49.440;11.126;2023-07-09T05:33:17;17.92;74.29
71096;DHT22;58753;49.440;11.126;2023-07-09T05:35:44;18.03;74.30
71096;DHT22;58753;49.440;11.126;2023-07-09T05:38:10;18.12;74.21
71096;DHT22;58753;49.440;11.126;2023-07-09T05:40:35;18.23;74.07
71096;DHT22;58753;49.440;11.126;2023-07-09T05:43:00;18.32;73.85
71096;DHT22;58753;49.440;11.126;2023-07-09T05:45:26;18.38;73.51
71096;DHT22;58753;49.440;11.126;2023-07-09T05:47:52;18.54;73.23
71096;DHT22;58753;49.440;11.126;2023-07-09T05:50:17;18.65;72.87
71096;DHT22;58753;49.440;11.126;2023-07-09T05:52:43;18.77;72.11
71096;DHT22;58753;49.440;11.126;2023-07-09T05:55:08;18.90;71.77
71096;DHT22;58753;49.440;11.126;2023-07-09T05:57:34;19.04;71.33
71096;DHT22;58753;49.440;11.126;2023-07-09T05:59:59;19.14;70.90
71096;DHT22;58753;49.440;11.126;2023-07-09T06:02:24;19.25;70.46
71096;DHT22;58753;49.440;11.126;2023-07-09T06:04:50;19.38;70.03
71096;DHT22;58753;49.440;11.126;2023-07-09T06:07:15;19.46;69.42
71096;DHT22;58753;49.440;11.126;2023-07-09T06:09:41;19.61;68.94
71096;DHT22;58753;49.440;11.126;2023-07-09T06:12:07;19.70;68.29
71096;DHT22;58753;49.440;11.126;2023-07-09T06:14:33;19.80;67.81
71096;DHT22;58753;49.440;11.126;2023-07-09T06:17:00;19.90;67.42
71096;DHT22;58753;49.440;11.126;2023-07-09T06:19:26;19.97;66.98
71096;DHT22;58753;49.440;11.126;2023-07-09T06:21:51;20.01;66.61
71096;DHT22;58753;49.440;11.126;2023-07-09T06:24:17;20.12;66.25
71096;DHT22;58753;49.440;11.126;2023-07-09T06:26:42;20.18;65.91
71096;DHT22;58753;49.440;11.126;2023-07-09T06:29:08;20.28;65.63
71096;DHT22;58753;49.440;11.126;2023-07-09T06:31:33;20.40;65.29
71096;DHT22;58753;49.440;11.126;2023-07-09T06:33:59;20.49;65.00
71096;DHT22;58753;49.440;11.126;2023-07-09T06:36:24;20.58;64.73
71096;DHT22;58753;49.440;11.126;2023-07-09T06:38:50;20.69;64.38
71096;DHT22;58753;49.440;11.126;2023-07-09T06:41:16;20.81;64.03
71096;DHT22;58753;49.440;11.126;2023-07-09T06:43:42;20.94;63.73
71096;DHT22;58753;49.440;11.126;2023-07-09T06:46:10;21.08;63.38
71096;DHT22;58753;49.440;11.126;2023-07-09T06:48:36;21.25;63.05
71096;DHT22;58753;49.440;11.126;2023-07-09T06:51:02;21.39;62.62
71096;DHT22;58753;49.440;11.126;2023-07-09T06:53:28;21.54;62.10
71096;DHT22;58753;49.440;11.126;2023-07-09T06:55:54;21.71;61.38
71096;DHT22;58753;49.440;11.126;2023-07-09T06:58:30;21.87;60.67
71096;DHT22;58753;49.440;11.126;2023-07-09T07:00:57;22.07;59.80
71096;DHT22;58753;49.440;11.126;2023-07-09T07:03:24;22.31;58.82
71096;DHT22;58753;49.440;11.126;2023-07-09T07:05:51;22.51;58.28
71096;DHT22;58753;49.440;11.126;2023-07-09T07:08:20;22.76;57.50
71096;DHT22;58753;49.440;11.126;2023-07-09T07:10:47;22.88;56.89
71096;DHT22;58753;49.440;11.126;2023-07-09T07:13:13;23.00;56.39
71096;DHT22;58753;49.440;11.126;2023-07-09T07:15:39;23.15;55.45
71096;DHT22;58753;49.440;11.126;2023-07-09T07:18:06;23.26;55.11
71096;DHT22;58753;49.440;11.126;2023-07-09T07:20:32;23.39;54.92
71096;DHT22;58753;49.440;11.126;2023-07-09T07:22:57;23.50;54.59
71096;DHT22;58753;49.440;11.126;2023-07-09T07:25:23;23.68;53.52
71096;DHT22;58753;49.440;11.126;2023-07-09T07:27:49;23.94;53.00
71096;DHT22;58753;49.440;11.126;2023-07-09T07:30:15;24.10;52.22
71096;DHT22;58753;49.440;11.126;2023-07-09T07:32:45;24.29;51.68
71096;DHT22;58753;49.440;11.126;2023-07-09T07:35:12;24.39;51.08
71096;DHT22;58753;49.440;11.126;2023-07-09T07:37:39;24.51;50.75
71096;DHT22;58753;49.440;11.126;2023-07-09T07:40:05;24.58;50.31
71096;DHT22;58753;49.440;11.126;2023-07-09T07:42:31;24.66;50.07
71096;DHT22;58753;49.440;11.126;2023-07-09T07:44:56;24.68;49.86
71096;DHT22;58753;49.440;11.126;2023-07-09T07:47:21;24.79;49.96
71096;DHT22;58753;49.440;11.126;2023-07-09T07:49:47;24.90;49.82
71096;DHT22;58753;49.440;11.126;2023-07-09T07:52:12;25.02;49.64
71096;DHT22;58753;49.440;11.126;2023-07-09T07:54:38;25.22;49.21
71096;DHT22;58753;49.440;11.126;2023-07-09T07:57:04;25.38;48.74
71096;DHT22;58753;49.440;11.126;2023-07-09T07:59:29;25.56;48.53
71096;DHT22;58753;49.440;11.126;2023-07-09T08:01:55;25.67;48.49
71096;DHT22;58753;49.440;11.126;2023-07-09T08:04:20;25.80;48.19
71096;DHT22;58753;49.440;11.126;2023-07-09T08:06:45;25.88;47.86
71096;DHT22;58753;49.440;11.126;2023-07-09T08:09:11;26.02;47.50
71096;DHT22;58753;49.440;11.126;2023-07-09T08:11:36;26.18;46.85
71096;DHT22;58753;49.440;11.126;2023-07-09T08:14:02;26.24;46.58
71096;DHT22;58753;49.440;11.126;2023-07-09T08:16:27;26.36;46.23
71096;DHT22;58753;49.440;11.126;2023-07-09T08:18:53;26.46;46.15
71096;DHT22;58753;49.440;11.126;2023-07-09T08:21:18;26.52;46.25
71096;DHT22;58753;49.440;11.126;2023-07-09T08:23:45;26.63;46.02
71096;DHT22;58753;49.440;11.126;2023-07-09T08:26:11;26.79;45.95
71096;DHT22;58753;49.440;11.126;2023-07-09T08:28:37;26.90;45.56
71096;DHT22;58753;49.440;11.126;2023-07-09T08:31:03;27.13;44.65
71096;DHT22;58753;49.440;11.126;2023-07-09T08:33:29;27.26;43.37
71096;DHT22;58753;49.440;11.126;2023-07-09T08:35:55;27.37;43.31
71096;DHT22;58753;49.440;11.126;2023-07-09T08:38:21;27.43;42.58
71096;DHT22;58753;49.440;11.126;2023-07-09T08:41:00;27.57;41.93
71096;DHT22;58753;49.440;11.126;2023-07-09T08:46:01;27.68;41.51
71096;DHT22;58753;49.440;11.126;2023-07-09T08:48:35;27.72;41.60
71096;DHT22;58753;49.440;11.126;2023-07-09T08:51:12;27.81;41.58
71096;DHT22;58753;49.440;11.126;2023-07-09T08:53:51;27.82;41.21
71096;DHT22;58753;49.440;11.126;2023-07-09T08:56:18;27.96;39.98
71096;DHT22;58753;49.440;11.126;2023-07-09T08:58:45;28.16;39.88
71096;DHT22;58753;49.440;11.126;2023-07-09T09:01:23;28.31;39.86
71096;DHT22;58753;49.440;11.126;2023-07-09T09:03:52;28.37;39.76
71096;DHT22;58753;49.440;11.126;2023-07-09T09:06:46;28.50;38.62
71096;DHT22;58753;49.440;11.126;2023-07-09T09:09:32;28.57;37.95
71096;DHT22;58753;49.440;11.126;2023-07-09T09:12:17;28.60;37.79
71096;DHT22;58753;49.440;11.126;2023-07-09T09:14:56;28.70;37.58
71096;DHT22;58753;49.440;11.126;2023-07-09T09:17:23;28.84;36.21
71096;DHT22;58753;49.440;11.126;2023-07-09T09:19:57;29.00;36.14
71096;DHT22;58753;49.440;11.126;2023-07-09T09:22:29;29.20;35.80
71096;DHT22;58753;49.440;11.126;2023-07-09T09:27:43;29.17;35.60
71096;DHT22;58753;49.440;11.126;2023-07-09T09:30:14;29.17;36.01
71096;DHT22;58753;49.440;11.126;2023-07-09T09:32:43;29.27;36.08
71096;DHT22;58753;49.440;11.126;2023-07-09T09:35:15;29.38;35.76
71096;DHT22;58753;49.440;11.126;2023-07-09T09:37:51;29.48;35.47
71096;DHT22;58753;49.440;11.126;2023-07-09T09:40:18;29.59;35.07
71096;DHT22;58753;49.440;11.126;2023-07-09T09:42:47;29.63;34.83
71096;DHT22;58753;49.440;11.126;2023-07-09T09:45:16;29.65;34.69
71096;DHT22;58753;49.440;11.126;2023-07-09T09:47:43;29.73;34.46
71096;DHT22;58753;49.440;11.126;2023-07-09T09:50:16;29.89;34.45
71096;DHT22;58753;49.440;11.126;2023-07-09T09:52:43;30.01;34.27
71096;DHT22;58753;49.440;11.126;2023-07-09T09:55:23;30.10;33.63
71096;DHT22;58753;49.440;11.126;2023-07-09T09:57:51;30.20;33.64
71096;DHT22;58753;49.440;11.126;2023-07-09T10:00:18;30.19;33.23
71096;DHT22;58753;49.440;11.126;2023-07-09T10:02:44;30.22;32.98
71096;DHT22;58753;49.440;11.126;2023-07-09T10:05:14;30.16;32.66
71096;DHT22;58753;49.440;11.126;2023-07-09T10:07:59;30.20;32.52
71096;DHT22;58753;49.440;11.126;2023-07-09T10:10:28;30.27;32.64
71096;DHT22;58753;49.440;11.126;2023-07-09T10:13:18;30.36;31.99
71096;DHT22;58753;49.440;11.126;2023-07-09T10:16:13;30.63;31.99
71096;DHT22;58753;49.440;11.126;2023-07-09T10:18:54;30.81;31.77
71096;DHT22;58753;49.440;11.126;2023-07-09T10:21:29;31.02;30.96
71096;DHT22;58753;49.440;11.126;2023-07-09T10:26:50;31.15;30.12
71096;DHT22;58753;49.440;11.126;2023-07-09T10:31:50;31.02;30.54
71096;DHT22;58753;49.440;11.126;2023-07-09T10:39:47;31.15;30.16
71096;DHT22;58753;49.440;11.126;2023-07-09T10:42:34;31.27;30.20
71096;DHT22;58753;49.440;11.126;2023-07-09T10:45:28;31.39;29.55
71096;DHT22;58753;49.440;11.126;2023-07-09T10:48:18;31.50;28.72
71096;DHT22;58753;49.440;11.126;2023-07-09T10:50:52;31.53;28.90
71096;DHT22;58753;49.440;11.126;2023-07-09T10:56:17;31.82;28.86
71096;DHT22;58753;49.440;11.126;2023-07-09T10:59:01;32.03;28.96
71096;DHT22;58753;49.440;11.126;2023-07-09T11:01:33;32.20;28.42
71096;DHT22;58753;49.440;11.126;2023-07-09T11:04:03;32.37;28.09
71096;DHT22;58753;49.440;11.126;2023-07-09T11:06:44;32.51;27.47
71096;DHT22;58753;49.440;11.126;2023-07-09T11:09:22;32.51;27.61
71096;DHT22;58753;49.440;11.126;2023-07-09T11:11:52;32.63;28.18
71096;DHT22;58753;49.440;11.126;2023-07-09T11:14:50;32.78;28.01
71096;DHT22;58753;49.440;11.126;2023-07-09T11:17:19;32.91;27.87
71096;DHT22;58753;49.440;11.126;2023-07-09T11:19:48;32.97;28.17
71096;DHT22;58753;49.440;11.126;2023-07-09T11:22:21;32.97;27.76
71096;DHT22;58753;49.440;11.126;2023-07-09T11:24:50;32.92;27.80
71096;DHT22;58753;49.440;11.126;2023-07-09T11:29:48;32.92;28.08
71096;DHT22;58753;49.440;11.126;2023-07-09T11:32:22;33.00;28.15
71096;DHT22;58753;49.440;11.126;2023-07-09T11:34:47;33.10;28.33
71096;DHT22;58753;49.440;11.126;2023-07-09T11:37:14;33.22;27.43
71096;DHT22;58753;49.440;11.126;2023-07-09T11:42:31;33.56;26.73
71096;DHT22;58753;49.440;11.126;2023-07-09T11:45:19;33.65;26.20
71096;DHT22;58753;49.440;11.126;2023-07-09T11:48:01;33.77;26.55
71096;DHT22;58753;49.440;11.126;2023-07-09T11:50:35;33.93;25.91
71096;DHT22;58753;49.440;11.126;2023-07-09T11:53:41;34.00;26.20
71096;DHT22;58753;49.440;11.126;2023-07-09T11:56:18;33.89;25.83
71096;DHT22;58753;49.440;11.126;2023-07-09T11:58:55;33.89;25.74
71096;DHT22;58753;49.440;11.126;2023-07-09T12:01:27;33.88;26.04
71096;DHT22;58753;49.440;11.126;2023-07-09T12:03:58;33.86;26.31
71096;DHT22;58753;49.440;11.126;2023-07-09T12:06:29;34.07;26.84
71096;DHT22;58753;49.440;11.126;2023-07-09T12:08:56;34.26;26.30
71096;DHT22;58753;49.440;11.126;2023-07-09T12:11:32;34.41;26.67
71096;DHT22;58753;49.440;11.126;2023-07-09T12:14:13;34.60;26.44
71096;DHT22;58753;49.440;11.126;2023-07-09T12:16:41;34.76;25.88
71096;DHT22;58753;49.440;11.126;2023-07-09T12:19:11;34.70;25.02
71096;DHT22;58753;49.440;11.126;2023-07-09T12:21:42;34.43;24.48
71096;DHT22;58753;49.440;11.126;2023-07-09T12:26:43;34.30;25.32
71096;DHT22;58753;49.440;11.126;2023-07-09T12:29:10;33.97;25.67
71096;DHT22;58753;49.440;11.126;2023-07-09T12:31:39;33.77;25.84
71096;DHT22;58753;49.440;11.126;2023-07-09T12:34:04;33.54;25.68
71096;DHT22;58753;49.440;11.126;2023-07-09T12:36:35;33.39;25.56
71096;DHT22;58753;49.440;11.126;2023-07-09T12:39:02;33.59;26.40
71096;DHT22;58753;49.440;11.126;2023-07-09T12:41:35;33.99;26.35
71096;DHT22;58753;49.440;11.126;2023-07-09T12:44:01;34.36;26.01
71096;DHT22;58753;49.440;11.126;2023-07-09T12:46:29;34.64;25.59
71096;DHT22;58753;49.440;11.126;2023-07-09T12:48:55;34.87;25.09
71096;DHT22;58753;49.440;11.126;2023-07-09T12:51:29;34.90;25.03
71096;DHT22;58753;49.440;11.126;2023-07-09T12:54:14;35.12;25.21
71096;DHT22;58753;49.440;11.126;2023-07-09T12:56:40;35.32;25.18
71096;DHT22;58753;49.440;11.126;2023-07-09T12:59:27;35.43;24.82
71096;DHT22;58753;49.440;11.126;2023-07-09T13:02:01;35.28;24.15
71096;DHT22;58753;49.440;11.126;2023-07-09T13:04:36;34.57;23.74
71096;DHT22;58753;49.440;11.126;2023-07-09T13:07:03;34.03;24.21
71096;DHT22;58753;49.440;11.126;2023-07-09T13:09:33;33.63;24.58
71096;DHT22;58753;49.440;11.126;2023-07-09T13:11:59;33.51;25.47
71096;DHT22;58753;49.440;11.126;2023-07-09T13:14:30;33.92;25.68
71096;DHT22;58753;49.440;11.126;2023-07-09T13:17:09;33.90;25.53
71096;DHT22;58753;49.440;11.126;2023-07-09T13:19:35;33.77;25.36
71096;DHT22;58753;49.440;11.126;2023-07-09T13:22:04;33.80;25.90
71096;DHT22;58753;49.440;11.126;2023-07-09T13:24:30;33.93;26.11
71096;DHT22;58753;49.440;11.126;2023-07-09T13:27:00;34.17;25.65
71096;DHT22;58753;49.440;11.126;2023-07-09T13:29:27;33.77;24.72
71096;DHT22;58753;49.440;11.126;2023-07-09T13:31:53;33.56;25.60
71096;DHT22;58753;49.440;11.126;2023-07-09T13:34:24;33.41;25.87
71096;DHT22;58753;49.440;11.126;2023-07-09T13:36:53;33.41;26.04
71096;DHT22;58753;49.440;11.126;2023-07-09T13:39:20;33.22;26.16
71096;DHT22;58753;49.440;11.126;2023-07-09T13:41:47;33.19;26.57
71096;DHT22;58753;49.440;11.126;2023-07-09T13:44:27;33.19;27.54
71096;DHT22;58753;49.440;11.126;2023-07-09T13:46:53;33.35;26.91
71096;DHT22;58753;49.440;11.126;2023-07-09T13:49:21;33.41;26.59
71096;DHT22;58753;49.440;11.126;2023-07-09T13:51:50;33.25;26.72
71096;DHT22;58753;49.440;11.126;2023-07-09T13:54:22;33.59;27.33
71096;DHT22;58753;49.440;11.126;2023-07-09T13:56:50;33.95;26.82
71096;DHT22;58753;49.440;11.126;2023-07-09T13:59:24;33.66;27.01
71096;DHT22;58753;49.440;11.126;2023-07-09T14:01:53;34.12;27.65
71096;DHT22;58753;49.440;11.126;2023-07-09T14:04:20;34.50;27.40
71096;DHT22;58753;49.440;11.126;2023-07-09T14:06:46;34.64;27.00
71096;DHT22;58753;49.440;11.126;2023-07-09T14:09:13;34.87;25.41
71096;DHT22;58753;49.440;11.126;2023-07-09T14:11:46;35.07;25.26
71096;DHT22;58753;49.440;11.126;2023-07-09T14:14:24;35.35;24.44
71096;DHT22;58753;49.440;11.126;2023-07-09T14:16:52;35.48;24.82
71096;DHT22;58753;49.440;11.126;2023-07-09T14:19:21;35.10;24.00
71096;DHT22;58753;49.440;11.126;2023-07-09T14:21:49;34.57;24.56
71096;DHT22;58753;49.440;11.126;2023-07-09T14:24:27;34.10;25.29
71096;DHT22;58753;49.440;11.126;2023-07-09T14:26:54;33.75;25.80
71096;DHT22;58753;49.440;11.126;2023-07-09T14:29:20;33.48;26.23
71096;DHT22;58753;49.440;11.126;2023-07-09T14:31:49;33.22;26.84
71096;DHT22;58753;49.440;11.126;2023-07-09T14:34:23;32.97;27.00
71096;DHT22;58753;49.440;11.126;2023-07-09T14:36:51;32.78;27.45
71096;DHT22;58753;49.440;11.126;2023-07-09T14:39:16;32.63;27.79
71096;DHT22;58753;49.440;11.126;2023-07-09T14:41:43;32.53;28.09
71096;DHT22;58753;49.440;11.126;2023-07-09T14:44:25;32.49;28.29
71096;DHT22;58753;49.440;11.126;2023-07-09T14:46:52;32.39;28.62
71096;DHT22;58753;49.440;11.126;2023-07-09T14:49:18;32.29;28.44
71096;DHT22;58753;49.440;11.126;2023-07-09T14:51:44;32.19;28.77
71096;DHT22;58753;49.440;11.126;2023-07-09T14:54:19;32.19;28.96
71096;DHT22;58753;49.440;11.126;2023-07-09T14:56:48;32.14;29.01
71096;DHT22;58753;49.440;11.126;2023-07-09T14:59:14;32.23;28.66
71096;DHT22;58753;49.440;11.126;2023-07-09T15:01:42;32.24;28.28
71096;DHT22;58753;49.440;11.126;2023-07-09T15:04:28;32.22;28.46
71096;DHT22;58753;49.440;11.126;2023-07-09T15:06:54;32.14;28.93
71096;DHT22;58753;49.440;11.126;2023-07-09T15:09:26;32.13;29.13
71096;DHT22;58753;49.440;11.126;2023-07-09T15:11:57;32.60;29.13
71096;DHT22;58753;49.440;11.126;2023-07-09T15:14:24;33.17;29.70
71096;DHT22;58753;49.440;11.126;2023-07-09T15:16:53;33.00;29.56
71096;DHT22;58753;49.440;11.126;2023-07-09T15:19:24;32.64;29.66
71096;DHT22;58753;49.440;11.126;2023-07-09T15:21:50;32.51;29.86
71096;DHT22;58753;49.440;11.126;2023-07-09T15:24:27;32.33;30.14
71096;DHT22;58753;49.440;11.126;2023-07-09T15:26:54;32.16;30.45
71096;DHT22;58753;49.440;11.126;2023-07-09T15:29:21;32.03;30.85
71096;DHT22;58753;49.440;11.126;2023-07-09T15:31:49;31.88;31.18
71096;DHT22;58753;49.440;11.126;2023-07-09T15:34:15;31.78;31.62
71096;DHT22;58753;49.440;11.126;2023-07-09T15:36:45;31.86;32.66
71096;DHT22;58753;49.440;11.126;2023-07-09T15:39:10;32.36;33.35
71096;DHT22;58753;49.440;11.126;2023-07-09T15:41:37;32.83;33.22
71096;DHT22;58753;49.440;11.126;2023-07-09T15:44:03;33.10;32.71
71096;DHT22;58753;49.440;11.126;2023-07-09T15:46:28;33.26;32.44
71096;DHT22;58753;49.440;11.126;2023-07-09T15:48:55;33.26;31.89
71096;DHT22;58753;49.440;11.126;2023-07-09T15:51:21;32.91;31.90
71096;DHT22;58753;49.440;11.126;2023-07-09T15:53:46;32.59;32.08
71096;DHT22;58753;49.440;11.126;2023-07-09T15:56:23;32.31;32.04
71096;DHT22;58753;49.440;11.126;2023-07-09T15:58:51;32.12;31.82